Terminal Aerodrome Forecast
Issued by NWS

Home | Current Version | Previous Version | Graphics & Text | Print | Product List | Glossary On
Versions: 1 2 3 4 5 6 7 8 9 10 11 12
966
FTUS43 KMPX 180520
TAFAXN
TAF
KAXN 180520Z 1806/1906 20008KT P6SM SKC
     FM180700 20009KT P6SM FEW250 WS020/23040KT
     FM181200 21010KT P6SM FEW250
     FM181500 25013G21KT P6SM FEW250
     FM181800 30016G24KT P6SM FEW250
     FM190000 28008KT P6SM SKC=

USA.gov is the U.S. government's official web portal to all federal, state and local government web resources and services.